sensor_id;sensor_type;location;lat;lon;timestamp;pressure;altitude;pressure_sealevel;temperature;humidity
64628;BME280;68467;50.960;0.314;2024-03-23T00:54:06;99737.63;;;5.72;100.00
64628;BME280;68467;50.960;0.314;2024-03-23T00:56:33;99738.10;;;5.16;100.00
64628;BME280;68467;50.960;0.314;2024-03-23T00:59:00;99735.81;;;5.67;100.00
64628;BME280;68467;50.960;0.314;2024-03-23T01:01:27;99737.85;;;5.49;100.00
64628;BME280;68467;50.960;0.314;2024-03-23T01:03:54;99738.07;;;5.64;100.00
64628;BME280;68467;50.960;0.314;2024-03-23T01:06:22;99738.78;;;5.40;100.00
64628;BME280;68467;50.960;0.314;2024-03-23T01:08:49;99729.58;;;5.34;100.00
64628;BME280;68467;50.960;0.314;2024-03-23T01:11:16;99728.84;;;5.17;100.00
64628;BME280;68467;50.960;0.314;2024-03-23T01:13:43;99726.04;;;5.34;100.00
64628;BME280;68467;50.960;0.314;2024-03-23T01:16:11;99731.44;;;5.26;100.00
64628;BME280;68467;50.960;0.314;2024-03-23T01:18:39;99731.03;;;5.45;100.00
64628;BME280;68467;50.960;0.314;2024-03-23T01:21:06;99731.99;;;5.91;100.00
64628;BME280;68467;50.960;0.314;2024-03-23T01:23:33;99733.42;;;5.79;100.00
64628;BME280;68467;50.960;0.314;2024-03-23T01:26:00;99729.30;;;5.63;100.00
64628;BME280;68467;50.960;0.314;2024-03-23T01:28:27;99735.26;;;5.88;100.00
64628;BME280;68467;50.960;0.314;2024-03-23T01:30:54;99736.62;;;5.38;100.00
64628;BME280;68467;50.960;0.314;2024-03-23T01:33:22;99735.52;;;5.12;100.00
64628;BME280;68467;50.960;0.314;2024-03-23T01:35:49;99735.97;;;4.84;100.00
64628;BME280;68467;50.960;0.314;2024-03-23T01:38:16;99738.28;;;5.44;100.00
64628;BME280;68467;50.960;0.314;2024-03-23T01:40:43;99738.39;;;5.35;100.00
64628;BME280;68467;50.960;0.314;2024-03-23T01:43:10;99737.75;;;5.14;100.00
64628;BME280;68467;50.960;0.314;2024-03-23T01:45:38;99739.38;;;4.86;100.00
64628;BME280;68467;50.960;0.314;2024-03-23T01:48:06;99734.92;;;5.10;100.00
64628;BME280;68467;50.960;0.314;2024-03-23T01:50:35;99729.65;;;5.64;100.00
64628;BME280;68467;50.960;0.314;2024-03-23T01:53:04;99727.69;;;5.39;100.00
64628;BME280;68467;50.960;0.314;2024-03-23T01:55:32;99729.06;;;5.97;100.00
64628;BME280;68467;50.960;0.314;2024-03-23T01:58:00;99721.77;;;5.59;100.00
64628;BME280;68467;50.960;0.314;2024-03-23T02:00:27;99720.29;;;5.26;100.00
64628;BME280;68467;50.960;0.314;2024-03-23T02:02:54;99726.97;;;5.21;100.00
64628;BME280;68467;50.960;0.314;2024-03-23T02:05:22;99725.13;;;5.94;100.00
64628;BME280;68467;50.960;0.314;2024-03-23T02:07:50;99728.74;;;5.69;100.00
64628;BME280;68467;50.960;0.314;2024-03-23T02:10:18;99734.22;;;5.29;100.00
64628;BME280;68467;50.960;0.314;2024-03-23T02:12:45;99734.24;;;5.16;100.00
64628;BME280;68467;50.960;0.314;2024-03-23T02:15:12;99730.81;;;5.58;100.00
64628;BME280;68467;50.960;0.314;2024-03-23T02:17:39;99731.85;;;5.74;100.00
64628;BME280;68467;50.960;0.314;2024-03-23T02:20:07;99734.80;;;5.73;100.00
64628;BME280;68467;50.960;0.314;2024-03-23T02:22:36;99733.63;;;5.36;100.00
64628;BME280;68467;50.960;0.314;2024-03-23T02:25:04;99733.95;;;5.22;100.00
64628;BME280;68467;50.960;0.314;2024-03-23T02:27:32;99731.74;;;5.61;100.00
64628;BME280;68467;50.960;0.314;2024-03-23T02:29:59;99728.64;;;5.30;100.00
64628;BME280;68467;50.960;0.314;2024-03-23T02:32:26;99729.30;;;4.90;100.00
64628;BME280;68467;50.960;0.314;2024-03-23T02:34:53;99725.09;;;5.01;100.00
64628;BME280;68467;50.960;0.314;2024-03-23T02:37:21;99722.03;;;5.32;100.00
64628;BME280;68467;50.960;0.314;2024-03-23T02:39:48;99719.14;;;4.72;100.00
64628;BME280;68467;50.960;0.314;2024-03-23T02:42:15;99719.80;;;5.34;100.00
64628;BME280;68467;50.960;0.314;2024-03-23T02:44:42;99721.90;;;4.92;100.00
64628;BME280;68467;50.960;0.314;2024-03-23T02:47:09;99717.69;;;4.96;100.00
64628;BME280;68467;50.960;0.314;2024-03-23T02:49:36;99711.67;;;4.81;100.00
64628;BME280;68467;50.960;0.314;2024-03-23T02:52:04;99711.54;;;5.24;100.00
64628;BME280;68467;50.960;0.314;2024-03-23T02:54:31;99712.09;;;5.23;100.00
64628;BME280;68467;50.960;0.314;2024-03-23T02:56:58;99710.31;;;5.19;100.00
64628;BME280;68467;50.960;0.314;2024-03-23T02:59:25;99712.54;;;5.07;100.00
64628;BME280;68467;50.960;0.314;2024-03-23T03:01:53;99711.69;;;4.76;100.00
64628;BME280;68467;50.960;0.314;2024-03-23T03:04:20;99715.03;;;4.38;100.00
64628;BME280;68467;50.960;0.314;2024-03-23T03:06:47;99713.11;;;4.81;100.00
64628;BME280;68467;50.960;0.314;2024-03-23T03:09:14;99709.28;;;4.88;100.00
64628;BME280;68467;50.960;0.314;2024-03-23T03:11:41;99713.35;;;4.93;100.00
64628;BME280;68467;50.960;0.314;2024-03-23T03:14:09;99711.38;;;4.14;100.00
64628;BME280;68467;50.960;0.314;2024-03-23T03:16:36;99711.39;;;5.28;100.00
64628;BME280;68467;50.960;0.314;2024-03-23T03:19:03;99710.46;;;4.71;100.00
64628;BME280;68467;50.960;0.314;2024-03-23T03:21:30;99710.86;;;4.93;100.00
64628;BME280;68467;50.960;0.314;2024-03-23T03:23:58;99706.74;;;4.98;100.00
64628;BME280;68467;50.960;0.314;2024-03-23T03:26:25;99708.64;;;4.50;100.00
64628;BME280;68467;50.960;0.314;2024-03-23T03:28:52;99711.87;;;4.06;100.00
64628;BME280;68467;50.960;0.314;2024-03-23T03:31:19;99705.36;;;4.20;100.00
64628;BME280;68467;50.960;0.314;2024-03-23T03:33:47;99705.06;;;4.23;100.00
64628;BME280;68467;50.960;0.314;2024-03-23T03:36:17;99704.96;;;4.62;100.00
64628;BME280;68467;50.960;0.314;2024-03-23T03:38:43;99711.34;;;4.39;100.00
64628;BME280;68467;50.960;0.314;2024-03-23T03:41:11;99706.25;;;4.15;100.00
64628;BME280;68467;50.960;0.314;2024-03-23T03:43:38;99702.91;;;4.68;100.00
64628;BME280;68467;50.960;0.314;2024-03-23T03:46:05;99698.17;;;4.22;100.00
64628;BME280;68467;50.960;0.314;2024-03-23T03:48:32;99693.76;;;4.57;100.00
64628;BME280;68467;50.960;0.314;2024-03-23T03:51:00;99692.82;;;4.02;100.00
64628;BME280;68467;50.960;0.314;2024-03-23T03:53:27;99692.46;;;4.42;100.00
64628;BME280;68467;50.960;0.314;2024-03-23T03:55:54;99690.47;;;4.61;100.00
64628;BME280;68467;50.960;0.314;2024-03-23T03:58:21;99693.18;;;4.12;100.00
64628;BME280;68467;50.960;0.314;2024-03-23T04:00:48;99691.65;;;4.50;100.00
64628;BME280;68467;50.960;0.314;2024-03-23T04:03:16;99691.73;;;4.44;100.00
64628;BME280;68467;50.960;0.314;2024-03-23T04:05:43;99694.38;;;4.43;100.00
64628;BME280;68467;50.960;0.314;2024-03-23T04:08:10;99691.79;;;4.33;100.00
64628;BME280;68467;50.960;0.314;2024-03-23T04:10:37;99690.26;;;4.51;100.00
64628;BME280;68467;50.960;0.314;2024-03-23T04:13:04;99693.61;;;3.71;100.00
64628;BME280;68467;50.960;0.314;2024-03-23T04:15:32;99692.26;;;4.06;100.00
64628;BME280;68467;50.960;0.314;2024-03-23T04:17:59;99690.55;;;3.90;100.00
64628;BME280;68467;50.960;0.314;2024-03-23T04:20:26;99692.48;;;4.29;100.00
64628;BME280;68467;50.960;0.314;2024-03-23T04:22:53;99696.63;;;3.85;100.00
64628;BME280;68467;50.960;0.314;2024-03-23T04:25:21;99698.04;;;4.08;100.00
64628;BME280;68467;50.960;0.314;2024-03-23T04:27:48;99695.31;;;4.48;100.00
64628;BME280;68467;50.960;0.314;2024-03-23T04:30:15;99694.84;;;4.04;100.00
64628;BME280;68467;50.960;0.314;2024-03-23T04:32:42;99690.56;;;3.89;100.00
64628;BME280;68467;50.960;0.314;2024-03-23T04:35:10;99691.08;;;3.97;100.00
64628;BME280;68467;50.960;0.314;2024-03-23T04:37:37;99693.95;;;4.23;100.00
64628;BME280;68467;50.960;0.314;2024-03-23T04:40:06;99693.57;;;3.80;100.00
64628;BME280;68467;50.960;0.314;2024-03-23T04:42:35;99692.01;;;4.16;100.00
64628;BME280;68467;50.960;0.314;2024-03-23T04:45:02;99690.39;;;4.44;100.00
64628;BME280;68467;50.960;0.314;2024-03-23T04:47:29;99694.22;;;3.56;100.00
64628;BME280;68467;50.960;0.314;2024-03-23T04:49:56;99694.84;;;3.84;100.00
64628;BME280;68467;50.960;0.314;2024-03-23T04:52:23;99698.40;;;3.71;100.00
64628;BME280;68467;50.960;0.314;2024-03-23T04:54:50;99701.90;;;3.90;100.00
64628;BME280;68467;50.960;0.314;2024-03-23T04:57:18;99701.85;;;3.84;100.00
64628;BME280;68467;50.960;0.314;2024-03-23T04:59:45;99699.70;;;3.65;100.00
64628;BME280;68467;50.960;0.314;2024-03-23T05:02:12;99704.72;;;3.68;100.00
64628;BME280;68467;50.960;0.314;2024-03-23T05:04:39;99704.38;;;3.36;100.00
64628;BME280;68467;50.960;0.314;2024-03-23T05:07:07;99704.53;;;3.83;100.00
64628;BME280;68467;50.960;0.314;2024-03-23T05:09:34;99701.60;;;3.78;100.00
64628;BME280;68467;50.960;0.314;2024-03-23T05:12:01;99703.86;;;3.80;100.00
64628;BME280;68467;50.960;0.314;2024-03-23T05:14:28;99697.91;;;3.89;100.00
64628;BME280;68467;50.960;0.314;2024-03-23T05:16:56;99701.94;;;3.93;100.00
64628;BME280;68467;50.960;0.314;2024-03-23T05:19:23;99692.32;;;3.64;100.00
64628;BME280;68467;50.960;0.314;2024-03-23T05:21:50;99687.20;;;4.13;100.00
64628;BME280;68467;50.960;0.314;2024-03-23T05:24:17;99690.55;;;4.31;100.00
64628;BME280;68467;50.960;0.314;2024-03-23T05:26:45;99695.23;;;3.14;100.00
64628;BME280;68467;50.960;0.314;2024-03-23T05:29:13;99691.11;;;3.66;100.00
64628;BME280;68467;50.960;0.314;2024-03-23T05:31:40;99693.81;;;3.34;100.00
64628;BME280;68467;50.960;0.314;2024-03-23T05:34:08;99700.23;;;3.43;100.00
64628;BME280;68467;50.960;0.314;2024-03-23T05:36:36;99702.38;;;3.38;100.00
64628;BME280;68467;50.960;0.314;2024-03-23T05:39:03;99696.95;;;3.67;100.00
64628;BME280;68467;50.960;0.314;2024-03-23T05:41:30;99698.48;;;3.45;100.00
64628;BME280;68467;50.960;0.314;2024-03-23T05:43:58;99702.81;;;3.41;100.00
64628;BME280;68467;50.960;0.314;2024-03-23T05:46:25;99699.23;;;3.72;100.00
64628;BME280;68467;50.960;0.314;2024-03-23T05:48:52;99700.41;;;3.69;100.00
64628;BME280;68467;50.960;0.314;2024-03-23T05:51:19;99698.52;;;4.27;100.00
64628;BME280;68467;50.960;0.314;2024-03-23T05:53:46;99703.74;;;3.72;100.00
64628;BME280;68467;50.960;0.314;2024-03-23T05:56:14;99707.63;;;3.44;100.00
64628;BME280;68467;50.960;0.314;2024-03-23T05:58:41;99701.72;;;3.86;100.00
64628;BME280;68467;50.960;0.314;2024-03-23T06:01:08;99699.83;;;3.62;100.00
64628;BME280;68467;50.960;0.314;2024-03-23T06:03:35;99699.92;;;3.62;100.00
64628;BME280;68467;50.960;0.314;2024-03-23T06:06:02;99699.01;;;3.76;100.00
64628;BME280;68467;50.960;0.314;2024-03-23T06:08:30;99694.58;;;3.28;100.00
64628;BME280;68467;50.960;0.314;2024-03-23T06:10:57;99695.29;;;3.81;100.00
64628;BME280;68467;50.960;0.314;2024-03-23T06:13:24;99689.62;;;4.08;100.00
64628;BME280;68467;50.960;0.314;2024-03-23T06:15:52;99690.33;;;3.64;100.00
64628;BME280;68467;50.960;0.314;2024-03-23T06:18:19;99688.01;;;4.13;100.00
64628;BME280;68467;50.960;0.314;2024-03-23T06:20:46;99687.95;;;4.07;100.00
64628;BME280;68467;50.960;0.314;2024-03-23T06:23:13;99685.51;;;4.19;100.00
64628;BME280;68467;50.960;0.314;2024-03-23T06:25:40;99684.53;;;4.33;100.00
64628;BME280;68467;50.960;0.314;2024-03-23T06:28:08;99684.58;;;4.68;100.00
64628;BME280;68467;50.960;0.314;2024-03-23T06:30:36;99687.61;;;3.75;100.00
64628;BME280;68467;50.960;0.314;2024-03-23T06:33:03;99687.92;;;4.13;100.00
64628;BME280;68467;50.960;0.314;2024-03-23T06:35:30;99686.95;;;4.23;100.00
64628;BME280;68467;50.960;0.314;2024-03-23T06:37:57;99688.48;;;4.30;100.00
64628;BME280;68467;50.960;0.314;2024-03-23T06:40:24;99681.74;;;4.17;100.00
64628;BME280;68467;50.960;0.314;2024-03-23T06:42:52;99675.42;;;4.05;100.00
64628;BME280;68467;50.960;0.314;2024-03-23T06:45:19;99677.23;;;3.62;100.00
64628;BME280;68467;50.960;0.314;2024-03-23T06:47:46;99681.16;;;3.87;100.00
64628;BME280;68467;50.960;0.314;2024-03-23T06:50:13;99680.50;;;4.57;100.00
64628;BME280;68467;50.960;0.314;2024-03-23T06:52:41;99683.08;;;3.55;100.00
64628;BME280;68467;50.960;0.314;2024-03-23T06:55:08;99681.49;;;4.00;100.00
64628;BME280;68467;50.960;0.314;2024-03-23T06:57:36;99672.25;;;3.81;100.00
64628;BME280;68467;50.960;0.314;2024-03-23T07:00:04;99674.60;;;4.20;100.00
64628;BME280;68467;50.960;0.314;2024-03-23T07:02:31;99670.56;;;4.22;100.00
64628;BME280;68467;50.960;0.314;2024-03-23T07:04:58;99675.75;;;4.05;100.00
64628;BME280;68467;50.960;0.314;2024-03-23T07:07:26;99678.39;;;4.25;100.00
64628;BME280;68467;50.960;0.314;2024-03-23T07:09:53;99684.03;;;3.97;100.00
64628;BME280;68467;50.960;0.314;2024-03-23T07:12:20;99687.51;;;3.70;100.00
64628;BME280;68467;50.960;0.314;2024-03-23T07:14:47;99685.40;;;3.74;100.00
64628;BME280;68467;50.960;0.314;2024-03-23T07:17:14;99682.95;;;3.42;100.00
64628;BME280;68467;50.960;0.314;2024-03-23T07:19:42;99681.52;;;4.04;100.00
64628;BME280;68467;50.960;0.314;2024-03-23T07:22:11;99681.86;;;4.43;100.00
64628;BME280;68467;50.960;0.314;2024-03-23T07:24:38;99680.81;;;4.13;100.00
64628;BME280;68467;50.960;0.314;2024-03-23T07:27:06;99681.11;;;4.39;100.00
64628;BME280;68467;50.960;0.314;2024-03-23T07:29:33;99680.99;;;4.09;100.00
64628;BME280;68467;50.960;0.314;2024-03-23T07:32:01;99679.65;;;3.79;100.00
64628;BME280;68467;50.960;0.314;2024-03-23T07:34:29;99675.26;;;4.55;100.00
64628;BME280;68467;50.960;0.314;2024-03-23T07:36:56;99671.35;;;4.05;100.00
64628;BME280;68467;50.960;0.314;2024-03-23T07:39:23;99664.81;;;4.53;100.00
64628;BME280;68467;50.960;0.314;2024-03-23T07:41:51;99665.80;;;4.74;100.00
64628;BME280;68467;50.960;0.314;2024-03-23T07:44:18;99666.92;;;4.39;100.00
64628;BME280;68467;50.960;0.314;2024-03-23T07:46:45;99664.91;;;4.81;100.00
64628;BME280;68467;50.960;0.314;2024-03-23T07:49:12;99666.31;;;5.45;100.00
64628;BME280;68467;50.960;0.314;2024-03-23T07:51:41;99667.58;;;5.34;100.00
64628;BME280;68467;50.960;0.314;2024-03-23T07:54:09;99663.35;;;5.53;100.00
64628;BME280;68467;50.960;0.314;2024-03-23T07:56:36;99665.89;;;5.30;100.00
64628;BME280;68467;50.960;0.314;2024-03-23T07:59:03;99666.63;;;4.84;100.00
64628;BME280;68467;50.960;0.314;2024-03-23T08:01:31;99662.68;;;5.01;100.00
64628;BME280;68467;50.960;0.314;2024-03-23T08:03:58;99660.29;;;5.33;100.00
64628;BME280;68467;50.960;0.314;2024-03-23T08:06:25;99663.00;;;5.21;100.00
64628;BME280;68467;50.960;0.314;2024-03-23T08:08:55;99655.47;;;4.94;100.00
64628;BME280;68467;50.960;0.314;2024-03-23T08:11:23;99655.17;;;5.51;100.00
64628;BME280;68467;50.960;0.314;2024-03-23T08:13:50;99652.98;;;5.05;100.00
64628;BME280;68467;50.960;0.314;2024-03-23T08:16:18;99649.87;;;5.50;100.00
64628;BME280;68467;50.960;0.314;2024-03-23T08:18:45;99658.17;;;4.80;100.00
64628;BME280;68467;50.960;0.314;2024-03-23T08:21:13;99646.98;;;5.15;100.00
64628;BME280;68467;50.960;0.314;2024-03-23T08:23:40;99644.37;;;5.75;100.00
64628;BME280;68467;50.960;0.314;2024-03-23T08:26:07;99645.66;;;6.68;100.00
64628;BME280;68467;50.960;0.314;2024-03-23T08:28:35;99640.90;;;5.84;100.00
64628;BME280;68467;50.960;0.314;2024-03-23T08:31:06;99639.52;;;5.71;100.00
64628;BME280;68467;50.960;0.314;2024-03-23T08:33:34;99638.16;;;6.12;100.00
64628;BME280;68467;50.960;0.314;2024-03-23T08:36:02;99646.31;;;5.96;100.00
64628;BME280;68467;50.960;0.314;2024-03-23T08:38:29;99650.94;;;7.12;100.00
64628;BME280;68467;50.960;0.314;2024-03-23T08:41:01;99637.36;;;6.37;100.00
64628;BME280;68467;50.960;0.314;2024-03-23T08:43:30;99648.36;;;6.32;100.00
64628;BME280;68467;50.960;0.314;2024-03-23T08:46:04;99637.57;;;5.86;100.00
64628;BME280;68467;50.960;0.314;2024-03-23T08:48:31;99645.49;;;5.86;100.00
64628;BME280;68467;50.960;0.314;2024-03-23T08:51:00;99643.75;;;5.83;100.00
64628;BME280;68467;50.960;0.314;2024-03-23T08:53:28;99646.18;;;6.45;100.00
64628;BME280;68467;50.960;0.314;2024-03-23T08:55:55;99649.36;;;6.72;100.00
64628;BME280;68467;50.960;0.314;2024-03-23T08:58:24;99651.84;;;6.46;100.00
64628;BME280;68467;50.960;0.314;2024-03-23T09:00:51;99645.68;;;6.38;100.00
64628;BME280;68467;50.960;0.314;2024-03-23T09:03:19;99643.64;;;6.62;100.00
64628;BME280;68467;50.960;0.314;2024-03-23T09:05:46;99635.38;;;6.40;100.00
64628;BME280;68467;50.960;0.314;2024-03-23T09:08:13;99639.69;;;6.56;100.00
64628;BME280;68467;50.960;0.314;2024-03-23T09:10:41;99631.62;;;6.60;100.00
64628;BME280;68467;50.960;0.314;2024-03-23T09:13:09;99631.94;;;7.17;100.00
64628;BME280;68467;50.960;0.314;2024-03-23T09:15:45;99641.03;;;7.03;100.00
64628;BME280;68467;50.960;0.314;2024-03-23T09:18:12;99628.66;;;6.79;100.00
64628;BME280;68467;50.960;0.314;2024-03-23T09:20:39;99627.98;;;7.24;100.00
64628;BME280;68467;50.960;0.314;2024-03-23T09:23:07;99631.04;;;7.01;100.00
64628;BME280;68467;50.960;0.314;2024-03-23T09:25:36;99626.52;;;6.92;100.00
64628;BME280;68467;50.960;0.314;2024-03-23T09:28:04;99625.54;;;6.70;100.00
64628;BME280;68467;50.960;0.314;2024-03-23T09:30:32;99627.61;;;7.08;100.00
64628;BME280;68467;50.960;0.314;2024-03-23T09:33:00;99627.20;;;7.08;100.00
64628;BME280;68467;50.960;0.314;2024-03-23T09:35:27;99624.29;;;6.70;100.00
64628;BME280;68467;50.960;0.314;2024-03-23T09:37:54;99622.51;;;7.06;100.00
64628;BME280;68467;50.960;0.314;2024-03-23T09:40:21;99618.00;;;7.47;100.00
64628;BME280;68467;50.960;0.314;2024-03-23T09:42:50;99611.83;;;7.71;100.00
64628;BME280;68467;50.960;0.314;2024-03-23T09:45:21;99609.61;;;8.06;100.00
64628;BME280;68467;50.960;0.314;2024-03-23T09:47:49;99603.87;;;7.59;100.00
64628;BME280;68467;50.960;0.314;2024-03-23T09:50:16;99604.01;;;7.69;100.00
64628;BME280;68467;50.960;0.314;2024-03-23T09:52:45;99605.14;;;7.56;100.00
64628;BME280;68467;50.960;0.314;2024-03-23T09:55:13;99600.55;;;7.84;100.00
64628;BME280;68467;50.960;0.314;2024-03-23T09:57:40;99602.44;;;7.23;100.00
64628;BME280;68467;50.960;0.314;2024-03-23T10:00:09;99606.12;;;7.24;100.00
64628;BME280;68467;50.960;0.314;2024-03-23T10:02:38;99594.01;;;7.04;100.00
64628;BME280;68467;50.960;0.314;2024-03-23T10:05:20;99599.14;;;7.40;100.00
64628;BME280;68467;50.960;0.314;2024-03-23T10:07:48;99605.29;;;7.11;100.00
64628;BME280;68467;50.960;0.314;2024-03-23T10:10:16;99588.37;;;7.65;100.00
64628;BME280;68467;50.960;0.314;2024-03-23T10:12:47;99592.60;;;7.77;100.00
64628;BME280;68467;50.960;0.314;2024-03-23T10:15:18;99589.01;;;7.24;100.00
64628;BME280;68467;50.960;0.314;2024-03-23T10:17:46;99586.86;;;7.22;100.00
64628;BME280;68467;50.960;0.314;2024-03-23T10:20:14;99577.14;;;7.72;100.00
64628;BME280;68467;50.960;0.314;2024-03-23T10:22:45;99586.04;;;7.81;100.00
64628;BME280;68467;50.960;0.314;2024-03-23T10:25:13;99583.73;;;7.62;100.00
64628;BME280;68467;50.960;0.314;2024-03-23T10:27:42;99582.40;;;7.84;100.00
64628;BME280;68467;50.960;0.314;2024-03-23T10:30:11;99579.25;;;7.96;100.00
64628;BME280;68467;50.960;0.314;2024-03-23T10:32:38;99574.95;;;8.12;100.00
64628;BME280;68467;50.960;0.314;2024-03-23T10:35:15;99569.39;;;7.57;100.00
64628;BME280;68467;50.960;0.314;2024-03-23T10:37:42;99568.32;;;8.42;100.00
64628;BME280;68467;50.960;0.314;2024-03-23T10:40:12;99563.18;;;8.15;100.00
64628;BME280;68467;50.960;0.314;2024-03-23T10:42:40;99563.26;;;8.14;100.00
64628;BME280;68467;50.960;0.314;2024-03-23T10:45:09;99556.74;;;8.22;100.00
64628;BME280;68467;50.960;0.314;2024-03-23T10:47:37;99556.09;;;8.31;100.00
64628;BME280;68467;50.960;0.314;2024-03-23T10:50:05;99558.07;;;8.40;100.00
64628;BME280;68467;50.960;0.314;2024-03-23T10:52:33;99556.50;;;8.62;100.00
64628;BME280;68467;50.960;0.314;2024-03-23T10:55:02;99544.43;;;8.33;100.00
64628;BME280;68467;50.960;0.314;2024-03-23T10:57:37;99554.67;;;7.96;100.00
64628;BME280;68467;50.960;0.314;2024-03-23T11:00:08;99550.56;;;8.32;100.00
64628;BME280;68467;50.960;0.314;2024-03-23T11:02:37;99538.21;;;8.30;100.00
64628;BME280;68467;50.960;0.314;2024-03-23T11:05:28;99533.40;;;8.19;100.00
64628;BME280;68467;50.960;0.314;2024-03-23T11:07:55;99524.14;;;8.75;100.00
64628;BME280;68467;50.960;0.314;2024-03-23T11:10:25;99519.44;;;8.65;100.00
64628;BME280;68467;50.960;0.314;2024-03-23T11:12:53;99519.25;;;8.62;100.00
64628;BME280;68467;50.960;0.314;2024-03-23T11:15:21;99529.28;;;8.15;100.00
64628;BME280;68467;50.960;0.314;2024-03-23T11:18:05;99525.80;;;8.48;100.00
64628;BME280;68467;50.960;0.314;2024-03-23T11:20:33;99515.86;;;8.16;100.00
64628;BME280;68467;50.960;0.314;2024-03-23T11:23:01;99512.03;;;8.63;100.00
64628;BME280;68467;50.960;0.314;2024-03-23T11:25:29;99508.15;;;8.70;100.00
64628;BME280;68467;50.960;0.314;2024-03-23T11:27:58;99512.14;;;9.07;100.00
64628;BME280;68467;50.960;0.314;2024-03-23T11:30:36;99499.14;;;9.39;100.00
64628;BME280;68467;50.960;0.314;2024-03-23T11:33:03;99491.15;;;9.41;100.00
64628;BME280;68467;50.960;0.314;2024-03-23T11:35:31;99492.91;;;9.60;100.00
64628;BME280;68467;50.960;0.314;2024-03-23T11:38:04;99496.16;;;8.94;100.00
64628;BME280;68467;50.960;0.314;2024-03-23T11:40:32;99501.30;;;9.04;100.00
64628;BME280;68467;50.960;0.314;2024-03-23T11:43:01;99490.87;;;8.27;100.00
64628;BME280;68467;50.960;0.314;2024-03-23T11:45:34;99490.12;;;8.94;100.00
64628;BME280;68467;50.960;0.314;2024-03-23T11:48:05;99482.39;;;9.22;100.00
64628;BME280;68467;50.960;0.314;2024-03-23T11:50:34;99473.73;;;9.15;100.00
64628;BME280;68467;50.960;0.314;2024-03-23T11:53:13;99475.05;;;9.62;100.00
64628;BME280;68467;50.960;0.314;2024-03-23T11:55:42;99460.19;;;9.53;100.00
64628;BME280;68467;50.960;0.314;2024-03-23T11:58:10;99460.58;;;10.04;100.00
64628;BME280;68467;50.960;0.314;2024-03-23T12:00:38;99453.37;;;9.94;100.00
64628;BME280;68467;50.960;0.314;2024-03-23T12:03:05;99443.90;;;10.26;100.00
64628;BME280;68467;50.960;0.314;2024-03-23T12:05:33;99444.60;;;10.34;100.00
64628;BME280;68467;50.960;0.314;2024-03-23T12:08:18;99444.15;;;10.51;100.00
64628;BME280;68467;50.960;0.314;2024-03-23T12:10:49;99441.78;;;10.58;100.00
64628;BME280;68467;50.960;0.314;2024-03-23T12:13:18;99435.58;;;10.88;100.00
64628;BME280;68467;50.960;0.314;2024-03-23T12:15:47;99430.84;;;11.29;100.00
64628;BME280;68467;50.960;0.314;2024-03-23T12:18:15;99425.43;;;10.54;98.47
64628;BME280;68467;50.960;0.314;2024-03-23T12:20:43;99413.77;;;10.53;98.58
64628;BME280;68467;50.960;0.314;2024-03-23T12:23:11;99412.28;;;10.89;99.60
64628;BME280;68467;50.960;0.314;2024-03-23T12:25:39;99410.09;;;10.77;100.00
64628;BME280;68467;50.960;0.314;2024-03-23T12:28:07;99406.67;;;10.28;100.00
64628;BME280;68467;50.960;0.314;2024-03-23T12:30:36;99417.48;;;9.55;100.00
64628;BME280;68467;50.960;0.314;2024-03-23T12:33:05;99401.23;;;9.79;100.00
64628;BME280;68467;50.960;0.314;2024-03-23T12:35:33;99403.84;;;8.68;100.00
64628;BME280;68467;50.960;0.314;2024-03-23T12:38:01;99402.96;;;8.52;100.00
64628;BME280;68467;50.960;0.314;2024-03-23T12:40:28;99398.21;;;8.38;100.00
64628;BME280;68467;50.960;0.314;2024-03-23T12:42:56;99394.90;;;8.19;100.00
64628;BME280;68467;50.960;0.314;2024-03-23T12:45:23;99383.52;;;8.13;100.00
64628;BME280;68467;50.960;0.314;2024-03-23T12:47:50;99397.69;;;7.90;100.00
64628;BME280;68467;50.960;0.314;2024-03-23T12:50:24;99379.55;;;8.47;100.00
64628;BME280;68467;50.960;0.314;2024-03-23T12:52:51;99390.80;;;7.47;100.00
64628;BME280;68467;50.960;0.314;2024-03-23T12:55:18;99390.95;;;8.26;100.00
64628;BME280;68467;50.960;0.314;2024-03-23T12:57:45;99379.78;;;8.39;100.00
64628;BME280;68467;50.960;0.314;2024-03-23T13:00:14;99378.74;;;8.44;100.00
64628;BME280;68467;50.960;0.314;2024-03-23T13:02:42;99381.43;;;8.36;100.00
64628;BME280;68467;50.960;0.314;2024-03-23T13:05:09;99385.29;;;8.69;100.00
64628;BME280;68467;50.960;0.314;2024-03-23T13:07:37;99395.72;;;7.88;100.00
64628;BME280;68467;50.960;0.314;2024-03-23T13:10:05;99410.30;;;7.82;100.00
64628;BME280;68467;50.960;0.314;2024-03-23T13:12:32;99404.82;;;7.41;100.00
64628;BME280;68467;50.960;0.314;2024-03-23T13:14:59;99404.01;;;7.98;100.00
64628;BME280;68467;50.960;0.314;2024-03-23T13:17:26;99402.23;;;7.17;100.00
64628;BME280;68467;50.960;0.314;2024-03-23T13:19:54;99396.90;;;7.28;100.00
64628;BME280;68467;50.960;0.314;2024-03-23T13:22:22;99394.29;;;7.03;100.00
64628;BME280;68467;50.960;0.314;2024-03-23T13:24:50;99389.95;;;6.71;100.00
64628;BME280;68467;50.960;0.314;2024-03-23T13:27:17;99387.19;;;7.06;100.00
64628;BME280;68467;50.960;0.314;2024-03-23T13:29:45;99391.49;;;6.88;100.00
64628;BME280;68467;50.960;0.314;2024-03-23T13:32:11;99362.22;;;6.85;100.00
64628;BME280;68467;50.960;0.314;2024-03-23T13:34:38;99357.15;;;6.90;100.00
64628;BME280;68467;50.960;0.314;2024-03-23T13:37:07;99341.24;;;7.64;100.00
64628;BME280;68467;50.960;0.314;2024-03-23T13:39:34;99351.02;;;7.59;100.00
64628;BME280;68467;50.960;0.314;2024-03-23T13:42:01;99354.46;;;8.00;100.00
64628;BME280;68467;50.960;0.314;2024-03-23T13:44:28;99351.26;;;8.26;100.00
64628;BME280;68467;50.960;0.314;2024-03-23T13:46:56;99328.66;;;9.15;100.00
64628;BME280;68467;50.960;0.314;2024-03-23T13:49:27;99330.67;;;9.23;100.00
64628;BME280;68467;50.960;0.314;2024-03-23T13:51:56;99332.94;;;8.57;100.00
64628;BME280;68467;50.960;0.314;2024-03-23T13:54:25;99332.57;;;8.41;100.00
64628;BME280;68467;50.960;0.314;2024-03-23T13:56:53;99344.15;;;7.85;100.00